createdAt,value
2023-01-08T00:00:13.175Z,73.06
2023-01-08T00:02:39.738Z,72.57
2023-01-08T00:05:07.141Z,73.36
2023-01-08T00:07:33.915Z,73.04
2023-01-08T00:10:00.621Z,72.57
2023-01-08T00:12:27.165Z,72.26
2023-01-08T00:14:59.438Z,73.30
2023-01-08T00:17:26.095Z,72.64
2023-01-08T00:19:58.797Z,72.55
2023-01-08T00:22:25.545Z,72.85
2023-01-08T00:24:52.380Z,72.26
2023-01-08T00:27:18.936Z,72.29
2023-01-08T00:29:48.614Z,72.72
2023-01-08T00:32:15.219Z,72.20
2023-01-08T00:34:42.226Z,72.34
2023-01-08T00:37:08.977Z,72.78
2023-01-08T00:39:39.103Z,72.06
2023-01-08T00:42:05.691Z,72.77
2023-01-08T00:44:32.501Z,72.54
2023-01-08T00:46:59.627Z,72.60
2023-01-08T00:49:26.159Z,72.42
2023-01-08T00:51:52.694Z,72.25
2023-01-08T00:54:22.114Z,71.64
2023-01-08T00:56:56.195Z,71.96
2023-01-08T00:59:23.578Z,72.13
2023-01-08T01:01:50.377Z,71.54
2023-01-08T01:04:20.196Z,71.35
2023-01-08T01:06:46.864Z,71.79
2023-01-08T01:09:13.675Z,72.53
2023-01-08T01:11:40.208Z,71.56
2023-01-08T01:14:06.729Z,71.79
2023-01-08T01:16:33.377Z,71.60
2023-01-08T01:18:59.970Z,71.96
2023-01-08T01:21:30.012Z,72.68
2023-01-08T01:23:57.254Z,72.41
2023-01-08T01:26:24.535Z,73.05
2023-01-08T01:28:51.686Z,73.18
2023-01-08T01:31:19.038Z,72.81
2023-01-08T01:33:45.943Z,72.06
2023-01-08T01:36:13.289Z,72.20
2023-01-08T01:38:42.861Z,72.13
2023-01-08T01:41:11.812Z,72.22
2023-01-08T01:43:42.074Z,71.53
2023-01-08T01:46:23.929Z,73.33
2023-01-08T01:48:51.376Z,73.73
2023-01-08T01:51:18.324Z,73.31
2023-01-08T01:53:44.862Z,73.26
2023-01-08T01:56:11.613Z,73.09
2023-01-08T01:58:43.846Z,72.58
2023-01-08T02:01:10.547Z,72.12
2023-01-08T02:03:38.552Z,71.86
2023-01-08T02:06:23.686Z,72.01
2023-01-08T02:08:53.080Z,71.92
2023-01-08T02:11:46.008Z,71.56
2023-01-08T02:14:17.304Z,71.26
2023-01-08T02:16:47.026Z,71.25
2023-01-08T02:19:43.043Z,71.67
2023-01-08T02:22:28.200Z,71.70
2023-01-08T02:24:57.097Z,71.66
2023-01-08T02:27:24.654Z,71.63
2023-01-08T02:29:51.597Z,71.79
2023-01-08T02:32:18.129Z,71.21
2023-01-08T02:34:44.800Z,71.54
2023-01-08T02:37:11.342Z,72.03
2023-01-08T02:39:44.760Z,72.18
2023-01-08T02:42:12.834Z,72.01
2023-01-08T02:44:55.394Z,72.21
2023-01-08T02:47:26.366Z,73.08
2023-01-08T02:49:54.684Z,72.50
2023-01-08T02:52:21.338Z,71.79
2023-01-08T02:54:47.895Z,72.35
2023-01-08T02:57:15.186Z,72.50
2023-01-08T02:59:43.373Z,71.78
2023-01-08T03:02:10.060Z,70.74
2023-01-08T03:04:37.824Z,71.47
2023-01-08T03:07:04.382Z,70.97
2023-01-08T03:09:31.873Z,71.82
2023-01-08T03:12:00.625Z,71.74
2023-01-08T03:14:28.779Z,71.67
2023-01-08T03:16:59.238Z,71.58
2023-01-08T03:19:28.543Z,71.14
2023-01-08T03:21:55.772Z,71.84
2023-01-08T03:24:22.915Z,72.50
2023-01-08T03:26:49.680Z,72.32
2023-01-08T03:29:16.975Z,72.52
2023-01-08T03:31:43.669Z,72.63
2023-01-08T03:34:10.297Z,72.12
2023-01-08T03:36:36.842Z,71.70
2023-01-08T03:39:08.738Z,72.11
2023-01-08T03:41:35.249Z,71.88
2023-01-08T03:44:01.873Z,71.98
2023-01-08T03:46:36.044Z,71.04
2023-01-08T03:49:02.667Z,70.93
2023-01-08T03:51:29.273Z,71.77
2023-01-08T03:53:57.006Z,70.79
2023-01-08T03:56:23.543Z,71.21
2023-01-08T03:58:50.086Z,71.30
2023-01-08T04:01:16.747Z,71.04
2023-01-08T04:03:43.366Z,71.21
2023-01-08T04:06:09.986Z,71.30
2023-01-08T04:08:36.850Z,70.34
2023-01-08T04:11:03.366Z,70.75
2023-01-08T04:13:29.933Z,70.77
2023-01-08T04:15:58.276Z,71.52
2023-01-08T04:18:24.866Z,71.67
2023-01-08T04:20:51.404Z,71.81
2023-01-08T04:23:20.022Z,71.52
2023-01-08T04:25:46.577Z,72.00
2023-01-08T04:28:13.118Z,71.55
2023-01-08T04:30:39.742Z,71.12
2023-01-08T04:33:06.340Z,71.21
2023-01-08T04:35:32.893Z,71.15
2023-01-08T04:37:59.402Z,71.02
2023-01-08T04:40:25.951Z,71.13
2023-01-08T04:42:52.487Z,71.08
2023-01-08T04:45:19.152Z,71.66
2023-01-08T04:47:48.833Z,72.10
2023-01-08T04:50:15.349Z,71.61
2023-01-08T04:52:41.877Z,71.95
2023-01-08T04:55:08.498Z,72.29
2023-01-08T04:57:35.015Z,71.84
2023-01-08T05:00:01.549Z,71.47
2023-01-08T05:02:28.300Z,71.45
2023-01-08T05:04:54.991Z,72.08
2023-01-08T05:07:24.036Z,71.92
2023-01-08T05:09:50.596Z,72.54
2023-01-08T05:12:17.120Z,72.87
2023-01-08T05:14:43.665Z,72.74
2023-01-08T05:17:10.223Z,72.98
2023-01-08T05:19:38.298Z,72.98
2023-01-08T05:22:07.557Z,72.67
2023-01-08T05:24:34.077Z,72.93
2023-01-08T05:27:00.643Z,72.87
2023-01-08T05:29:27.177Z,71.77
2023-01-08T05:31:53.724Z,71.41
2023-01-08T05:34:20.243Z,71.31
2023-01-08T05:36:46.806Z,71.35
2023-01-08T05:39:13.687Z,70.85
2023-01-08T05:41:40.215Z,70.85
2023-01-08T05:44:06.837Z,70.79
2023-01-08T05:46:33.558Z,70.59
2023-01-08T05:49:00.155Z,70.43
2023-01-08T05:51:26.744Z,70.31
2023-01-08T05:53:53.863Z,70.91
2023-01-08T05:56:20.418Z,72.08
2023-01-08T05:58:47.388Z,73.00
2023-01-08T06:01:16.217Z,73.13
2023-01-08T06:03:42.924Z,73.85
2023-01-08T06:06:10.596Z,73.72
2023-01-08T06:08:37.122Z,74.12
2023-01-08T06:11:04.913Z,74.42
2023-01-08T06:13:31.507Z,74.61
2023-01-08T06:15:59.148Z,75.16
2023-01-08T06:18:25.892Z,75.93
2023-01-08T06:20:52.474Z,75.45
2023-01-08T06:23:19.006Z,75.42
2023-01-08T06:25:45.571Z,76.27
2023-01-08T06:28:12.120Z,76.27
2023-01-08T06:30:40.768Z,76.40
2023-01-08T06:33:07.333Z,76.83
2023-01-08T06:35:34.263Z,77.02
2023-01-08T06:38:03.116Z,77.17
2023-01-08T06:40:29.729Z,77.16
2023-01-08T06:42:56.370Z,77.81
2023-01-08T06:45:22.913Z,77.56
2023-01-08T06:47:49.526Z,77.17
2023-01-08T06:50:19.130Z,77.13
2023-01-08T06:52:51.937Z,77.28
2023-01-08T06:55:18.472Z,77.55
2023-01-08T06:57:45.017Z,78.04
2023-01-08T07:00:11.847Z,78.04
2023-01-08T07:02:38.477Z,77.56
2023-01-08T07:05:05.232Z,77.42
2023-01-08T07:07:32.589Z,77.57
2023-01-08T07:09:59.221Z,77.02
2023-01-08T07:12:25.754Z,77.15
2023-01-08T07:14:52.291Z,76.81
2023-01-08T07:17:19.183Z,77.04
2023-01-08T07:19:45.746Z,77.08
2023-01-08T07:22:12.271Z,77.66
2023-01-08T07:24:38.824Z,77.62
2023-01-08T07:27:05.369Z,77.63
2023-01-08T07:29:34.700Z,77.22
2023-01-08T07:32:01.257Z,77.46
2023-01-08T07:34:27.787Z,77.31
2023-01-08T07:36:54.830Z,77.37
2023-01-08T07:39:21.414Z,77.33
2023-01-08T07:41:47.957Z,77.77
2023-01-08T07:44:15.751Z,77.89
2023-01-08T07:46:42.502Z,78.36
2023-01-08T07:49:09.164Z,78.91
2023-01-08T07:51:35.712Z,78.83
2023-01-08T07:54:05.316Z,79.35
2023-01-08T07:56:31.861Z,79.63
2023-01-08T07:59:03.874Z,79.20
2023-01-08T08:01:30.628Z,79.28
2023-01-08T08:03:57.447Z,79.10
2023-01-08T08:06:24.030Z,79.06
2023-01-08T08:08:50.561Z,78.87
2023-01-08T08:11:17.092Z,78.90
2023-01-08T08:13:45.864Z,79.58
2023-01-08T08:16:13.548Z,79.45
2023-01-08T08:18:40.282Z,79.34
2023-01-08T08:21:06.934Z,79.11
2023-01-08T08:23:36.410Z,79.55
2023-01-08T08:26:04.468Z,79.63
2023-01-08T08:28:32.737Z,79.24
2023-01-08T08:31:02.371Z,79.63
2023-01-08T08:33:29.002Z,79.43
2023-01-08T08:35:57.267Z,79.26
2023-01-08T08:38:25.070Z,79.32
2023-01-08T08:40:51.609Z,79.46
2023-01-08T08:43:18.156Z,79.60
2023-01-08T08:45:50.900Z,79.14
2023-01-08T08:48:17.944Z,79.34
2023-01-08T08:50:45.149Z,79.15
2023-01-08T08:53:11.737Z,79.26
2023-01-08T08:55:38.303Z,79.30
2023-01-08T08:58:05.825Z,79.65
2023-01-08T09:00:32.513Z,79.25
2023-01-08T09:02:59.569Z,79.13
2023-01-08T09:05:26.253Z,79.47
2023-01-08T09:07:54.382Z,79.56
2023-01-08T09:10:21.775Z,79.19
2023-01-08T09:12:48.317Z,78.94
2023-01-08T09:15:14.892Z,78.65
2023-01-08T09:17:41.450Z,78.78
2023-01-08T09:20:08.178Z,78.71
2023-01-08T09:22:36.960Z,78.58
2023-01-08T09:25:03.592Z,78.45
2023-01-08T09:27:30.136Z,78.63
2023-01-08T09:29:56.708Z,78.35
2023-01-08T09:32:23.300Z,78.33
2023-01-08T09:34:49.873Z,78.84
2023-01-08T09:37:16.764Z,78.71
2023-01-08T09:39:48.052Z,78.48
2023-01-08T09:42:15.062Z,78.47
2023-01-08T09:44:42.706Z,78.29
2023-01-08T09:47:19.595Z,78.75
2023-01-08T09:49:46.140Z,79.06
2023-01-08T09:52:14.015Z,79.39
2023-01-08T09:54:40.966Z,78.93
2023-01-08T09:57:10.783Z,77.95
2023-01-08T09:59:37.610Z,77.81
2023-01-08T10:02:04.305Z,77.62
2023-01-08T10:04:31.103Z,77.31
2023-01-08T10:07:01.671Z,77.12
2023-01-08T10:09:32.191Z,77.26
2023-01-08T10:12:00.704Z,77.39
2023-01-08T10:14:28.562Z,76.91
2023-01-08T10:16:57.950Z,77.00
2023-01-08T10:19:24.491Z,77.04
2023-01-08T10:21:51.027Z,76.67
2023-01-08T10:24:17.658Z,76.97
2023-01-08T10:26:44.210Z,76.64
2023-01-08T10:29:13.501Z,76.63
2023-01-08T10:31:49.073Z,76.34
2023-01-08T10:34:24.831Z,76.11
2023-01-08T10:36:52.044Z,75.67
2023-01-08T10:39:23.530Z,75.08
2023-01-08T10:41:50.768Z,75.51
2023-01-08T10:44:18.295Z,75.25
2023-01-08T10:46:45.374Z,75.20
2023-01-08T10:49:21.186Z,74.83
2023-01-08T10:51:51.889Z,75.10
2023-01-08T10:54:38.066Z,74.69
2023-01-08T10:57:21.569Z,74.51
2023-01-08T10:59:48.159Z,74.94
2023-01-08T11:02:36.561Z,74.07
2023-01-08T11:05:07.599Z,74.22
2023-01-08T11:07:35.531Z,74.51
2023-01-08T11:10:02.107Z,73.63
2023-01-08T11:12:31.917Z,73.75
2023-01-08T11:14:58.982Z,73.55
2023-01-08T11:17:26.458Z,73.18
2023-01-08T11:19:55.876Z,73.37
2023-01-08T11:22:23.621Z,73.01
2023-01-08T11:24:50.616Z,72.73
2023-01-08T11:27:25.400Z,72.46
2023-01-08T11:29:58.098Z,72.49
2023-01-08T11:32:37.578Z,72.70
2023-01-08T11:35:23.132Z,72.62
2023-01-08T11:37:53.809Z,72.31
2023-01-08T11:40:41.076Z,72.31
2023-01-08T11:43:07.813Z,72.34
2023-01-08T11:45:39.232Z,71.56
2023-01-08T11:48:27.430Z,71.74
2023-01-08T11:51:13.612Z,71.45
2023-01-08T11:53:46.213Z,71.54
2023-01-08T11:56:16.420Z,70.19
2023-01-08T11:58:59.681Z,70.65
2023-01-08T12:01:41.616Z,70.75
2023-01-08T12:04:19.220Z,70.30
2023-01-08T12:06:45.695Z,70.12
2023-01-08T12:09:31.002Z,71.91
2023-01-08T12:12:00.312Z,71.32
2023-01-08T12:14:30.071Z,71.34
2023-01-08T12:16:59.654Z,71.19
2023-01-08T12:19:32.057Z,71.59
2023-01-08T12:22:36.087Z,70.72
2023-01-08T12:25:13.174Z,71.47
2023-01-08T12:27:56.492Z,71.70
2023-01-08T12:30:42.963Z,71.37
2023-01-08T12:33:27.862Z,71.27
2023-01-08T12:35:54.761Z,71.08
2023-01-08T12:38:31.526Z,70.77
2023-01-08T12:40:58.975Z,71.04
2023-01-08T12:43:26.579Z,71.41
2023-01-08T12:45:53.636Z,71.30
2023-01-08T12:48:21.408Z,71.79
2023-01-08T12:50:51.022Z,70.95
2023-01-08T12:53:36.990Z,71.54
2023-01-08T12:56:03.554Z,71.65
2023-01-08T12:58:34.690Z,71.35
2023-01-08T13:01:06.395Z,70.97
2023-01-08T13:03:32.989Z,71.09
2023-01-08T13:06:10.148Z,71.00
2023-01-08T13:08:37.112Z,71.17
2023-01-08T13:11:03.702Z,70.12
2023-01-08T13:13:33.622Z,69.86
2023-01-08T13:16:08.320Z,70.06
2023-01-08T13:18:35.180Z,69.82
2023-01-08T13:21:02.527Z,69.86
2023-01-08T13:23:29.753Z,70.31
2023-01-08T13:25:57.557Z,70.74
2023-01-08T13:28:25.025Z,70.73
2023-01-08T13:30:51.698Z,70.80
2023-01-08T13:33:46.209Z,70.36
2023-01-08T13:36:12.762Z,70.80
2023-01-08T13:38:43.934Z,71.01
2023-01-08T13:41:29.479Z,71.65
2023-01-08T13:43:57.998Z,71.13
2023-01-08T13:46:25.259Z,71.41
2023-01-08T13:48:54.760Z,71.84
2023-01-08T13:51:27.922Z,70.83
2023-01-08T13:53:54.491Z,71.13
2023-01-08T13:56:21.401Z,70.76
2023-01-08T13:58:52.128Z,71.42
2023-01-08T14:01:18.771Z,70.64
2023-01-08T14:03:46.114Z,70.33
2023-01-08T14:06:17.300Z,70.05
2023-01-08T14:09:00.318Z,70.42
2023-01-08T14:11:33.883Z,70.27
2023-01-08T14:14:01.234Z,69.77
2023-01-08T14:16:29.512Z,68.82
2023-01-08T14:18:58.290Z,68.33
2023-01-08T14:21:25.351Z,68.51
2023-01-08T14:23:51.926Z,68.38
2023-01-08T14:26:21.908Z,67.80
2023-01-08T14:28:52.884Z,68.10
2023-01-08T14:31:23.612Z,68.77
2023-01-08T14:33:52.456Z,68.45
2023-01-08T14:36:19.682Z,68.64
2023-01-08T14:38:50.767Z,68.74
2023-01-08T14:41:18.773Z,69.17
2023-01-08T14:43:45.659Z,69.08
2023-01-08T14:46:15.471Z,68.43
2023-01-08T14:48:42.878Z,69.00
2023-01-08T14:51:10.526Z,69.29
2023-01-08T14:53:43.838Z,68.77
2023-01-08T14:56:13.884Z,69.00
2023-01-08T14:58:40.938Z,69.41
2023-01-08T15:01:30.984Z,69.11
2023-01-08T15:04:07.984Z,69.55
2023-01-08T15:06:34.557Z,69.89
2023-01-08T15:09:01.106Z,69.75
2023-01-08T15:11:31.401Z,69.75
2023-01-08T15:13:58.058Z,69.85
2023-01-08T15:16:27.619Z,69.75
2023-01-08T15:19:00.661Z,69.09
2023-01-08T15:21:27.201Z,69.01
2023-01-08T15:23:54.902Z,68.86
2023-01-08T15:26:21.942Z,69.51
2023-01-08T15:28:53.201Z,69.79
2023-01-08T15:31:43.315Z,69.02
2023-01-08T15:34:10.154Z,69.49
2023-01-08T15:36:36.690Z,69.45
2023-01-08T15:39:03.723Z,69.51
2023-01-08T15:42:06.386Z,69.01
2023-01-08T15:44:33.013Z,69.16
2023-01-08T15:46:59.730Z,68.95
2023-01-08T15:49:26.294Z,68.86
2023-01-08T15:51:53.035Z,68.82
2023-01-08T15:54:19.905Z,69.37
2023-01-08T15:56:46.483Z,70.32
2023-01-08T15:59:13.520Z,70.88
2023-01-08T16:01:40.115Z,71.04
2023-01-08T16:04:06.718Z,71.03
2023-01-08T16:06:33.318Z,71.14
2023-01-08T16:09:00.649Z,71.02
2023-01-08T16:11:27.406Z,71.41
2023-01-08T16:13:54.431Z,71.13
2023-01-08T16:16:21.600Z,70.89
2023-01-08T16:18:48.344Z,70.68
2023-01-08T16:21:14.936Z,70.84
2023-01-08T16:23:41.511Z,69.96
2023-01-08T16:26:08.963Z,69.67
2023-01-08T16:28:35.839Z,69.63
2023-01-08T16:31:03.263Z,69.66
2023-01-08T16:33:36.770Z,70.37
2023-01-08T16:36:05.067Z,70.84
2023-01-08T16:38:33.469Z,70.80
2023-01-08T16:41:00.521Z,71.11
2023-01-08T16:43:28.220Z,71.21
2023-01-08T16:45:55.285Z,70.82
2023-01-08T16:48:22.612Z,70.36
2023-01-08T16:50:49.340Z,69.63
2023-01-08T16:53:17.447Z,69.34
2023-01-08T16:55:44.018Z,69.04
2023-01-08T16:58:10.701Z,69.05
2023-01-08T17:00:37.715Z,69.07
2023-01-08T17:03:08.176Z,69.45
2023-01-08T17:05:35.921Z,69.63
2023-01-08T17:08:02.437Z,69.58
2023-01-08T17:10:29.339Z,69.80
2023-01-08T17:12:55.875Z,70.11
2023-01-08T17:15:25.837Z,70.02
2023-01-08T17:17:52.409Z,69.75
2023-01-08T17:20:20.109Z,69.99
2023-01-08T17:25:43.413Z,69.92
2023-01-08T17:28:15.380Z,70.86
2023-01-08T17:30:42.100Z,70.43
2023-01-08T17:33:14.734Z,70.15
2023-01-08T17:35:44.950Z,70.45
2023-01-08T17:38:13.930Z,70.49
2023-01-08T17:41:29.049Z,70.27
2023-01-08T17:44:21.142Z,69.92
2023-01-08T17:46:51.863Z,69.90
2023-01-08T17:49:18.859Z,69.97
2023-01-08T17:51:46.085Z,69.95
2023-01-08T17:54:14.490Z,70.31
2023-01-08T17:56:41.416Z,70.31
2023-01-08T17:59:08.258Z,70.12
2023-01-08T18:01:36.807Z,70.34
2023-01-08T18:04:06.751Z,70.72
2023-01-08T18:06:33.444Z,71.14
2023-01-08T18:09:00.899Z,70.72
2023-01-08T18:11:27.481Z,70.94
2023-01-08T18:13:57.966Z,71.85
2023-01-08T18:16:24.979Z,72.79
2023-01-08T18:18:51.763Z,73.30
2023-01-08T18:21:19.677Z,73.43
2023-01-08T18:23:49.301Z,73.50
2023-01-08T18:26:16.649Z,73.45
2023-01-08T18:28:43.347Z,73.98
2023-01-08T18:31:10.182Z,73.31
2023-01-08T18:33:36.963Z,74.17
2023-01-08T18:36:06.495Z,73.55
2023-01-08T18:38:37.998Z,73.67
2023-01-08T18:41:10.598Z,73.31
2023-01-08T18:43:37.254Z,73.33
2023-01-08T18:46:08.951Z,73.69
2023-01-08T18:48:37.746Z,72.96
2023-01-08T18:51:05.514Z,73.15
2023-01-08T18:53:32.335Z,74.07
2023-01-08T18:55:59.751Z,74.71
2023-01-08T18:58:27.421Z,74.22
2023-01-08T19:00:54.010Z,74.13
2023-01-08T19:03:20.610Z,73.80
2023-01-08T19:05:47.179Z,73.86
2023-01-08T19:08:14.050Z,74.13
2023-01-08T19:10:40.625Z,74.23
2023-01-08T19:13:07.573Z,74.37
2023-01-08T19:15:36.646Z,74.31
2023-01-08T19:18:03.854Z,74.25
2023-01-08T19:20:30.463Z,73.99
2023-01-08T19:22:56.994Z,73.99
2023-01-08T19:25:23.602Z,74.72
2023-01-08T19:27:50.323Z,75.27
2023-01-08T19:30:16.962Z,74.95
2023-01-08T19:32:43.775Z,74.57
2023-01-08T19:35:10.454Z,74.26
2023-01-08T19:37:37.095Z,73.67
2023-01-08T19:40:05.129Z,73.45
2023-01-08T19:42:50.356Z,73.04
2023-01-08T19:45:19.188Z,73.02
2023-01-08T19:47:45.780Z,72.84
2023-01-08T19:50:12.329Z,73.13
2023-01-08T19:52:39.091Z,73.49
2023-01-08T19:55:05.939Z,73.83
2023-01-08T19:57:32.482Z,73.50
2023-01-08T19:59:59.459Z,73.72
2023-01-08T20:02:26.435Z,74.10
2023-01-08T20:04:53.074Z,74.54
2023-01-08T20:07:19.670Z,74.96
2023-01-08T20:09:46.247Z,75.62
2023-01-08T20:12:14.099Z,76.06
2023-01-08T20:14:40.654Z,76.66
2023-01-08T20:17:07.234Z,76.86
2023-01-08T20:19:34.863Z,76.63
2023-01-08T20:22:01.500Z,76.88
2023-01-08T20:24:29.798Z,76.93
2023-01-08T20:26:56.362Z,79.24
2023-01-08T20:29:22.934Z,79.77
2023-01-08T20:31:50.101Z,80.92
2023-01-08T20:34:17.140Z,80.83
2023-01-08T20:36:44.260Z,81.43
2023-01-08T20:39:12.891Z,82.15
2023-01-08T20:41:39.587Z,81.99
2023-01-08T20:44:09.181Z,82.43
2023-01-08T20:46:38.555Z,82.89
2023-01-08T20:49:06.397Z,83.01
2023-01-08T20:51:33.477Z,83.09
2023-01-08T20:54:00.432Z,83.05
2023-01-08T20:56:27.264Z,83.68
2023-01-08T20:58:53.854Z,83.48
2023-01-08T21:01:21.517Z,83.73
2023-01-08T21:03:48.675Z,83.31
2023-01-08T21:06:16.961Z,83.30
2023-01-08T21:08:44.308Z,83.63
2023-01-08T21:11:11.186Z,82.52
2023-01-08T21:13:37.795Z,82.34
2023-01-08T21:16:07.606Z,83.52
2023-01-08T21:18:34.177Z,83.49
2023-01-08T21:21:01.227Z,83.52
2023-01-08T21:23:30.065Z,83.67
2023-01-08T21:25:57.627Z,83.38
2023-01-08T21:28:25.048Z,83.52
2023-01-08T21:30:54.488Z,83.39
2023-01-08T21:33:21.159Z,83.45
2023-01-08T21:35:48.071Z,83.16
2023-01-08T21:38:14.626Z,83.56
2023-01-08T21:40:44.957Z,83.35
2023-01-08T21:43:30.939Z,83.42
2023-01-08T21:46:01.717Z,83.36
2023-01-08T21:48:28.773Z,83.08
2023-01-08T21:50:55.374Z,83.30
2023-01-08T21:53:36.347Z,83.65
2023-01-08T21:56:04.546Z,83.88
2023-01-08T21:58:31.270Z,84.02
2023-01-08T22:00:58.051Z,83.80
2023-01-08T22:03:24.768Z,83.65
2023-01-08T22:05:58.384Z,84.20
2023-01-08T22:08:24.925Z,84.11
2023-01-08T22:10:51.587Z,84.08
2023-01-08T22:13:18.129Z,84.69
2023-01-08T22:15:44.675Z,84.83
2023-01-08T22:18:11.244Z,84.74
2023-01-08T22:20:37.847Z,85.20
2023-01-08T22:23:04.407Z,85.37
2023-01-08T22:25:30.966Z,85.44
2023-01-08T22:27:57.522Z,85.35
2023-01-08T22:30:24.065Z,85.60
2023-01-08T22:32:50.601Z,85.51
2023-01-08T22:35:17.138Z,85.72
2023-01-08T22:37:45.281Z,85.81
2023-01-08T22:40:12.013Z,85.92
2023-01-08T22:42:38.601Z,85.81
2023-01-08T22:45:05.370Z,85.14
2023-01-08T22:47:31.921Z,85.11
2023-01-08T22:49:58.451Z,85.44
2023-01-08T22:52:24.966Z,85.50
2023-01-08T22:54:54.433Z,85.56
2023-01-08T22:57:20.976Z,85.96
2023-01-08T22:59:47.529Z,86.47
2023-01-08T23:02:14.046Z,86.18
2023-01-08T23:04:40.564Z,86.36
2023-01-08T23:07:07.125Z,85.97
2023-01-08T23:09:33.671Z,86.07
2023-01-08T23:12:00.287Z,86.14
2023-01-08T23:14:26.864Z,85.96
2023-01-08T23:16:53.401Z,85.63
2023-01-08T23:19:19.926Z,86.15
2023-01-08T23:21:46.454Z,86.47
2023-01-08T23:24:15.000Z,86.62
2023-01-08T23:26:41.800Z,86.84
2023-01-08T23:29:09.160Z,86.64
2023-01-08T23:31:37.841Z,86.46
2023-01-08T23:34:05.347Z,85.70
2023-01-08T23:36:32.039Z,85.40
2023-01-08T23:39:01.675Z,85.05
2023-01-08T23:41:34.451Z,84.64
2023-01-08T23:44:02.718Z,84.45
2023-01-08T23:46:29.314Z,84.05
2023-01-08T23:48:56.356Z,84.09
2023-01-08T23:51:23.061Z,84.19
2023-01-08T23:53:51.593Z,83.58
2023-01-08T23:56:19.104Z,83.46
2023-01-08T23:58:45.951Z,83.22
